Bratislava/M.R. Stefanik Airport

Airport
ICAO code: 
LZIB
IATA Code: 
BTS
Summary
ICAO Region: 
EUR
Territory: 
Location: 
Ivanka, Bratislava
Serving: 
Bratislava
Elevation: 
436 ft
Coordinates: 
Aerial View: 
48° 10' 12" N, 17° 12' 47.988" E
Metar
Observation
LZIB 161030Z 06004KT 020V090 CAVOK 00/M02 Q1024 NOSIG
Station
Bratislava Ivanka
Date/Time
2022-01-16 10:30:00
Wind direction
60°
Wind speed
04 kts
Lowest cloud amount
clouds and visibility OK
Temperature
0°C
Dew point
-2°C
Humidity
86%
QNH
1024 hPa
Weather condition
n/a

International airport serving capital of Slovakia.

Climatology

Humid continental climate (Köppen climate classification Dfa)

Runways

Designator Length Width Surface Rops
4/22 2900 60 CON Yes/Yes
13/31 3190 45 CON Yes/Yes
Airport map: 
Aerial View: 

Accidents and Serious Incidents at or in the vicinity of LZIB

SKYbrary Partners:

Safety knowledge contributed by: